createdAt,value
2019-02-28T00:01:21.428Z,2.30
2019-02-28T00:03:49.072Z,2.17
2019-02-28T00:06:15.548Z,2.20
2019-02-28T00:08:42.047Z,2.70
2019-02-28T00:11:08.704Z,2.07
2019-02-28T00:13:35.186Z,2.10
2019-02-28T00:16:03.437Z,2.57
2019-02-28T00:18:30.084Z,2.23
2019-02-28T00:20:56.622Z,2.03
2019-02-28T00:23:23.121Z,2.50
2019-02-28T00:25:49.761Z,2.10
2019-02-28T00:28:16.250Z,2.00
2019-02-28T00:30:43.056Z,2.40
2019-02-28T00:33:09.674Z,2.73
2019-02-28T00:35:36.314Z,1.70
2019-02-28T00:38:03.301Z,1.80
2019-02-28T00:40:30.222Z,2.47
2019-02-28T00:42:56.733Z,2.40
2019-02-28T00:45:23.210Z,2.00
2019-02-28T00:47:50.391Z,2.10
2019-02-28T00:50:16.873Z,2.77
2019-02-28T00:52:43.388Z,2.40
2019-02-28T00:55:10.212Z,2.43
2019-02-28T00:57:36.969Z,2.50
2019-02-28T01:00:06.278Z,2.80
2019-02-28T01:02:33.203Z,2.43
2019-02-28T01:05:01.297Z,2.53
2019-02-28T01:07:28.072Z,2.43
2019-02-28T01:09:55.024Z,2.40
2019-02-28T01:12:21.655Z,2.40
2019-02-28T01:14:48.485Z,2.70
2019-02-28T01:17:14.996Z,2.63
2019-02-28T01:19:42.379Z,2.57
2019-02-28T01:22:10.165Z,2.83
2019-02-28T01:24:36.701Z,2.73
2019-02-28T01:27:10.130Z,2.63
2019-02-28T01:29:36.883Z,2.73
2019-02-28T01:32:03.495Z,3.50
2019-02-28T01:34:32.179Z,3.30
2019-02-28T01:36:59.012Z,3.43
2019-02-28T01:39:25.516Z,4.07
2019-02-28T01:41:51.977Z,3.20
2019-02-28T01:44:18.615Z,3.43
2019-02-28T01:46:48.520Z,3.83
2019-02-28T01:49:13.760Z,4.00
2019-02-28T01:51:40.579Z,4.10
2019-02-28T01:54:07.088Z,4.00
2019-02-28T01:56:34.243Z,3.53
2019-02-28T01:59:01.961Z,4.07
2019-02-28T02:01:30.966Z,4.03
2019-02-28T02:03:57.113Z,4.43
2019-02-28T02:06:25.732Z,4.20
2019-02-28T02:08:52.446Z,4.77
2019-02-28T02:11:19.204Z,5.03
2019-02-28T02:13:45.712Z,4.97
2019-02-28T02:16:12.213Z,4.93
2019-02-28T02:18:40.317Z,5.23
2019-02-28T02:21:07.389Z,5.63
2019-02-28T02:23:33.929Z,4.53
2019-02-28T02:26:00.448Z,4.60
2019-02-28T02:28:27.830Z,4.13
2019-02-28T02:30:54.598Z,4.10
2019-02-28T02:33:21.197Z,5.20
2019-02-28T02:35:47.919Z,5.30
2019-02-28T02:38:16.460Z,4.53
2019-02-28T02:40:43.265Z,4.90
2019-02-28T02:43:09.756Z,5.13
2019-02-28T02:45:41.731Z,4.97
2019-02-28T02:48:05.705Z,5.33
2019-02-28T02:50:35.823Z,5.23
2019-02-28T02:53:05.444Z,5.00
2019-02-28T02:55:29.805Z,4.60
2019-02-28T02:57:56.597Z,4.67
2019-02-28T03:00:23.196Z,4.50
2019-02-28T03:02:49.781Z,5.50
2019-02-28T03:05:16.642Z,4.83
2019-02-28T03:07:43.212Z,4.80
2019-02-28T03:10:10.799Z,4.77
2019-02-28T03:12:37.252Z,5.40
2019-02-28T03:15:04.562Z,4.47
2019-02-28T03:17:31.042Z,5.63
2019-02-28T03:19:59.116Z,5.07
2019-02-28T03:22:29.772Z,5.07
2019-02-28T03:24:54.303Z,4.90
2019-02-28T03:27:20.904Z,5.37
2019-02-28T03:29:47.619Z,5.30
2019-02-28T03:32:14.136Z,5.83
2019-02-28T03:34:40.601Z,5.57
2019-02-28T03:37:07.077Z,5.43
2019-02-28T03:39:33.535Z,5.17
2019-02-28T03:42:00.286Z,5.30
2019-02-28T03:44:26.904Z,6.17
2019-02-28T03:46:53.392Z,5.40
2019-02-28T03:49:19.899Z,5.83
2019-02-28T03:51:46.420Z,5.37
2019-02-28T03:54:18.804Z,6.37
2019-02-28T03:56:51.237Z,5.90
2019-02-28T03:59:18.248Z,6.27
2019-02-28T04:01:45.651Z,6.60
2019-02-28T04:04:12.243Z,6.10
2019-02-28T04:06:40.734Z,5.47
2019-02-28T04:09:08.913Z,6.43
2019-02-28T04:11:35.725Z,6.00
2019-02-28T04:14:02.245Z,6.63
2019-02-28T04:16:28.994Z,6.47
2019-02-28T04:18:55.701Z,6.10
2019-02-28T04:21:22.193Z,6.83
2019-02-28T04:23:48.668Z,5.83
2019-02-28T04:26:17.214Z,6.47
2019-02-28T04:28:43.750Z,5.60
2019-02-28T04:31:10.297Z,6.57
2019-02-28T04:33:38.875Z,7.00
2019-02-28T04:36:05.152Z,6.70
2019-02-28T04:38:31.795Z,6.40
2019-02-28T04:40:59.026Z,6.70
2019-02-28T04:43:26.660Z,7.40
2019-02-28T04:45:53.141Z,6.73
2019-02-28T04:48:19.730Z,6.23
2019-02-28T04:50:46.204Z,6.93
2019-02-28T04:53:12.677Z,6.37
2019-02-28T04:55:39.166Z,6.73
2019-02-28T04:58:05.618Z,7.07
2019-02-28T05:00:32.094Z,6.63
2019-02-28T05:02:58.690Z,7.03
2019-02-28T05:05:25.165Z,6.80
2019-02-28T05:07:51.929Z,7.57
2019-02-28T05:10:19.220Z,7.37
2019-02-28T05:12:46.773Z,6.77
2019-02-28T05:15:14.462Z,6.77
2019-02-28T05:17:41.222Z,7.77
2019-02-28T05:20:11.010Z,7.50
2019-02-28T05:22:36.600Z,7.50
2019-02-28T05:25:03.260Z,7.13
2019-02-28T05:27:34.881Z,7.27
2019-02-28T05:29:59.179Z,8.13
2019-02-28T05:32:25.672Z,7.53
2019-02-28T05:34:52.119Z,8.33
2019-02-28T05:37:19.663Z,7.60
2019-02-28T05:39:46.129Z,8.07
2019-02-28T05:42:12.610Z,7.80
2019-02-28T05:44:56.681Z,6.90
2019-02-28T05:47:23.471Z,8.07
2019-02-28T05:49:50.294Z,7.63
2019-02-28T05:52:18.821Z,7.97
2019-02-28T05:54:47.365Z,7.53
2019-02-28T05:57:14.063Z,8.37
2019-02-28T05:59:40.868Z,8.57
2019-02-28T06:02:07.433Z,8.47
2019-02-28T06:04:34.173Z,8.80
2019-02-28T06:07:02.357Z,8.47
2019-02-28T06:09:28.956Z,8.17
2019-02-28T06:11:55.557Z,8.40
2019-02-28T06:14:26.633Z,7.37
2019-02-28T06:16:51.511Z,8.13
2019-02-28T06:19:18.057Z,8.57
2019-02-28T06:21:46.216Z,8.50
2019-02-28T06:24:13.603Z,8.13
2019-02-28T06:26:40.449Z,7.50
2019-02-28T06:29:12.287Z,7.80
2019-02-28T06:31:39.231Z,7.90
2019-02-28T06:34:08.605Z,8.37
2019-02-28T06:36:34.287Z,8.13
2019-02-28T06:39:01.499Z,8.30
2019-02-28T06:41:28.141Z,8.97
2019-02-28T06:43:54.657Z,8.70
2019-02-28T06:46:21.181Z,8.80
2019-02-28T06:48:47.714Z,8.80
2019-02-28T06:51:16.740Z,7.87
2019-02-28T06:53:42.738Z,8.43
2019-02-28T06:56:09.594Z,8.90
2019-02-28T06:58:36.233Z,7.90
2019-02-28T07:01:02.975Z,8.57
2019-02-28T07:03:29.929Z,9.13
2019-02-28T07:06:01.033Z,9.00
2019-02-28T07:08:28.960Z,8.87
2019-02-28T07:10:55.555Z,9.33
2019-02-28T07:13:22.690Z,9.00
2019-02-28T07:15:49.252Z,9.17
2019-02-28T07:18:18.908Z,8.10
2019-02-28T07:20:47.158Z,9.10
2019-02-28T07:23:13.398Z,9.60
2019-02-28T07:25:39.934Z,8.97
2019-02-28T07:28:06.611Z,10.93
2019-02-28T07:30:33.137Z,9.83
2019-02-28T07:32:59.709Z,10.63
2019-02-28T07:35:32.894Z,11.07
2019-02-28T07:37:57.078Z,10.23
2019-02-28T07:40:25.943Z,10.23
2019-02-28T07:42:52.793Z,12.30
2019-02-28T07:45:19.323Z,11.43
2019-02-28T07:47:51.707Z,12.30
2019-02-28T07:50:15.114Z,13.60
2019-02-28T07:52:47.243Z,11.90
2019-02-28T07:55:15.151Z,12.87
2019-02-28T07:57:41.700Z,12.30
2019-02-28T08:00:18.311Z,11.40
2019-02-28T08:02:43.184Z,12.80
2019-02-28T08:05:10.881Z,12.70
2019-02-28T08:07:38.593Z,12.77
2019-02-28T08:10:08.327Z,12.47
2019-02-28T08:12:34.852Z,13.03
2019-02-28T08:15:13.701Z,13.90
2019-02-28T08:17:40.690Z,14.23
2019-02-28T08:20:11.917Z,13.20
2019-02-28T08:22:38.430Z,14.67
2019-02-28T08:25:07.818Z,15.07
2019-02-28T08:27:39.400Z,15.40
2019-02-28T08:30:10.192Z,16.10
2019-02-28T08:32:42.387Z,16.50
2019-02-28T08:35:06.373Z,16.00
2019-02-28T08:37:32.846Z,16.83
2019-02-28T08:39:59.992Z,16.77
2019-02-28T08:42:26.598Z,17.80
2019-02-28T08:44:58.129Z,18.87
2019-02-28T08:47:21.970Z,18.80
2019-02-28T08:49:48.457Z,18.73
2019-02-28T08:52:15.648Z,18.20
2019-02-28T08:54:42.205Z,18.93
2019-02-28T08:57:12.981Z,19.17
2019-02-28T08:59:39.592Z,17.80
2019-02-28T09:02:06.119Z,18.47
2019-02-28T09:04:41.010Z,19.60
2019-02-28T09:07:01.356Z,20.70
2019-02-28T09:09:27.892Z,20.50
2019-02-28T09:11:58.126Z,21.03
2019-02-28T09:14:35.461Z,20.77
2019-02-28T09:17:02.207Z,21.23
2019-02-28T09:19:28.780Z,20.33
2019-02-28T09:21:55.410Z,22.17
2019-02-28T09:24:22.725Z,21.30
2019-02-28T09:26:53.698Z,22.90
2019-02-28T09:29:21.205Z,23.90
2019-02-28T09:31:49.743Z,23.13
2019-02-28T09:34:16.443Z,23.20
2019-02-28T09:36:43.156Z,23.73
2019-02-28T09:39:09.969Z,23.80
2019-02-28T09:41:40.353Z,25.80
2019-02-28T09:44:07.017Z,24.67
2019-02-28T09:46:33.988Z,24.03
2019-02-28T09:49:03.132Z,23.60
2019-02-28T09:51:32.125Z,26.20
2019-02-28T09:53:59.177Z,25.80
2019-02-28T09:56:28.172Z,26.90
2019-02-28T09:58:54.899Z,25.37
2019-02-28T10:01:24.414Z,26.03
2019-02-28T10:03:52.247Z,26.43
2019-02-28T10:06:19.202Z,26.60
2019-02-28T10:08:45.845Z,25.43
2019-02-28T10:11:12.495Z,26.10
2019-02-28T10:13:39.089Z,26.17
2019-02-28T10:16:05.803Z,25.57
2019-02-28T10:18:35.543Z,25.00
2019-02-28T10:21:02.749Z,25.07
2019-02-28T10:23:29.546Z,25.87
2019-02-28T10:25:56.254Z,24.57
2019-02-28T10:28:25.297Z,25.00
2019-02-28T10:30:51.907Z,25.37
2019-02-28T10:33:18.462Z,24.37
2019-02-28T10:35:45.078Z,25.17
2019-02-28T10:38:11.807Z,24.33
2019-02-28T10:40:38.314Z,24.63
2019-02-28T10:43:04.879Z,25.13
2019-02-28T10:45:31.463Z,24.90
2019-02-28T10:48:02.975Z,25.13
2019-02-28T10:50:31.991Z,24.77
2019-02-28T10:52:54.993Z,24.57
2019-02-28T10:55:22.416Z,23.77
2019-02-28T10:57:50.225Z,25.70
2019-02-28T11:00:23.327Z,25.53
2019-02-28T11:02:53.543Z,25.90
2019-02-28T11:05:21.012Z,25.83
2019-02-28T11:07:56.926Z,24.53
2019-02-28T11:10:36.190Z,24.33
2019-02-28T11:13:04.266Z,23.17
2019-02-28T11:15:30.868Z,24.20
2019-02-28T11:17:57.538Z,25.33
2019-02-28T11:20:26.247Z,25.10
2019-02-28T11:22:57.316Z,25.63
2019-02-28T11:25:24.512Z,26.23
2019-02-28T11:27:53.754Z,25.50
2019-02-28T11:30:20.197Z,24.90
2019-02-28T11:32:48.404Z,26.37
2019-02-28T11:35:15.139Z,26.77
2019-02-28T11:37:42.349Z,24.93
2019-02-28T11:40:10.442Z,24.57
2019-02-28T11:42:37.009Z,24.87
2019-02-28T11:45:04.176Z,25.30
2019-02-28T11:47:32.162Z,25.43
2019-02-28T11:50:03.549Z,25.80
2019-02-28T11:52:27.453Z,25.97
2019-02-28T11:54:54.816Z,24.63
2019-02-28T11:57:21.436Z,24.27
2019-02-28T11:59:48.376Z,25.30
2019-02-28T12:02:15.270Z,24.40
2019-02-28T12:04:42.030Z,25.47
2019-02-28T12:07:09.609Z,25.00
2019-02-28T12:09:36.272Z,25.13
2019-02-28T12:12:03.174Z,25.00
2019-02-28T12:14:30.172Z,26.03
2019-02-28T12:16:57.242Z,25.17
2019-02-28T12:19:26.114Z,24.43
2019-02-28T12:21:52.602Z,24.53
2019-02-28T12:24:19.346Z,25.03
2019-02-28T12:26:45.996Z,26.10
2019-02-28T12:29:13.798Z,26.47
2019-02-28T12:31:40.683Z,24.63
2019-02-28T12:34:07.217Z,24.50
2019-02-28T12:36:34.224Z,22.77
2019-02-28T12:39:02.298Z,24.60
2019-02-28T12:41:29.506Z,24.17
2019-02-28T12:43:56.043Z,24.73
2019-02-28T12:46:23.108Z,23.43
2019-02-28T12:48:49.586Z,21.70
2019-02-28T12:51:16.450Z,22.73
2019-02-28T12:53:42.978Z,23.53
2019-02-28T12:56:11.290Z,24.43
2019-02-28T12:58:39.234Z,23.63
2019-02-28T13:01:05.965Z,23.00
2019-02-28T13:03:32.599Z,23.67
2019-02-28T13:05:59.284Z,22.90
2019-02-28T13:08:25.893Z,24.43
2019-02-28T13:10:52.545Z,25.07
2019-02-28T13:13:21.006Z,24.03
2019-02-28T13:15:49.218Z,22.73
2019-02-28T13:18:16.006Z,24.73
2019-02-28T13:20:42.672Z,24.67
2019-02-28T13:23:09.191Z,23.87
2019-02-28T13:25:35.867Z,24.27
2019-02-28T13:28:02.896Z,24.87
2019-02-28T13:30:30.128Z,25.17
2019-02-28T13:32:56.681Z,24.20
2019-02-28T13:35:25.269Z,24.70
2019-02-28T13:37:52.147Z,24.83
2019-02-28T13:40:22.380Z,24.87
2019-02-28T13:42:49.593Z,24.77
2019-02-28T13:45:23.045Z,25.27
2019-02-28T13:47:47.613Z,24.23
2019-02-28T13:50:17.386Z,24.17
2019-02-28T13:52:46.098Z,25.20
2019-02-28T13:55:14.208Z,25.23
2019-02-28T13:57:43.417Z,25.27
2019-02-28T14:00:18.217Z,24.70
2019-02-28T14:02:45.097Z,25.27
2019-02-28T14:05:12.225Z,23.80
2019-02-28T14:07:38.856Z,25.60
2019-02-28T14:10:07.519Z,25.70
2019-02-28T14:12:35.632Z,25.23
2019-02-28T14:15:02.741Z,24.73
2019-02-28T14:17:29.244Z,26.07
2019-02-28T14:19:56.008Z,25.67
2019-02-28T14:22:22.633Z,26.63
2019-02-28T14:24:49.159Z,25.20
2019-02-28T14:27:15.705Z,26.40
2019-02-28T14:29:48.055Z,26.00
2019-02-28T14:32:11.111Z,26.93
2019-02-28T14:34:37.698Z,27.60
2019-02-28T14:37:05.621Z,26.17
2019-02-28T14:39:32.330Z,26.37
2019-02-28T14:41:59.341Z,27.03
2019-02-28T14:44:27.915Z,26.83
2019-02-28T14:46:54.757Z,26.57
2019-02-28T14:49:23.716Z,26.70
2019-02-28T14:51:50.735Z,25.60
2019-02-28T14:54:17.651Z,25.20
2019-02-28T14:56:44.497Z,26.17
2019-02-28T14:59:11.102Z,26.73
2019-02-28T15:01:37.970Z,25.10
2019-02-28T15:04:07.780Z,25.53
2019-02-28T15:06:33.620Z,25.70
2019-02-28T15:09:00.252Z,24.13
2019-02-28T15:11:27.150Z,25.07
2019-02-28T15:13:53.754Z,25.10
2019-02-28T15:16:21.643Z,24.67
2019-02-28T15:18:51.010Z,25.30
2019-02-28T15:21:16.931Z,23.43
2019-02-28T15:23:44.893Z,25.53
2019-02-28T15:26:11.456Z,25.90
2019-02-28T15:28:38.057Z,24.70
2019-02-28T15:31:05.760Z,26.20
2019-02-28T15:33:33.689Z,25.10
2019-02-28T15:36:00.623Z,23.73
2019-02-28T15:38:27.234Z,24.23
2019-02-28T15:40:55.672Z,24.73
2019-02-28T15:43:22.605Z,24.10
2019-02-28T15:45:49.496Z,22.87
2019-02-28T15:48:16.892Z,23.47
2019-02-28T15:50:51.778Z,24.70
2019-02-28T15:53:18.443Z,24.90
2019-02-28T15:55:45.669Z,25.17
2019-02-28T15:58:16.614Z,23.07
2019-02-28T16:00:43.584Z,23.83
2019-02-28T16:03:10.107Z,23.80
2019-02-28T16:05:42.488Z,22.60
2019-02-28T16:08:08.756Z,25.30
2019-02-28T16:10:33.909Z,23.53
2019-02-28T16:13:00.801Z,23.07
2019-02-28T16:15:27.932Z,23.20
2019-02-28T16:17:54.672Z,22.13
2019-02-28T16:20:22.606Z,22.17
2019-02-28T16:22:52.375Z,22.20
2019-02-28T16:25:20.730Z,21.63
2019-02-28T16:27:47.372Z,19.03
2019-02-28T16:30:16.092Z,18.10
2019-02-28T16:32:45.537Z,19.27
2019-02-28T16:35:14.748Z,19.30
2019-02-28T16:37:40.671Z,18.73
2019-02-28T16:40:10.062Z,18.13
2019-02-28T16:42:36.771Z,17.90
2019-02-28T16:45:06.106Z,18.73
2019-02-28T16:47:33.635Z,17.43
2019-02-28T16:50:00.457Z,17.83
2019-02-28T16:52:27.600Z,17.10
2019-02-28T16:54:56.309Z,17.33
2019-02-28T16:57:26.984Z,17.53
2019-02-28T16:59:53.989Z,17.13
2019-02-28T17:02:20.855Z,16.90
2019-02-28T17:04:48.693Z,16.17
2019-02-28T17:07:15.991Z,16.67
2019-02-28T17:09:42.968Z,19.37
2019-02-28T17:12:34.800Z,19.83
2019-02-28T17:15:02.417Z,17.43
2019-02-28T17:17:33.331Z,19.17
2019-02-28T17:20:03.045Z,16.93
2019-02-28T17:22:29.678Z,16.73
2019-02-28T17:24:56.167Z,16.63
2019-02-28T17:27:30.215Z,16.03
2019-02-28T17:30:10.767Z,15.90
2019-02-28T17:32:37.592Z,15.80
2019-02-28T17:35:04.796Z,15.23
2019-02-28T17:37:31.320Z,16.43
2019-02-28T17:39:57.834Z,15.77
2019-02-28T17:42:24.513Z,17.20
2019-02-28T17:45:01.669Z,16.83
2019-02-28T17:48:12.825Z,15.57
2019-02-28T17:50:52.732Z,14.33
2019-02-28T17:53:48.327Z,15.20
2019-02-28T17:56:41.953Z,14.73
2019-02-28T17:59:49.016Z,14.93
2019-02-28T18:02:58.349Z,15.70
2019-02-28T18:05:50.263Z,14.97
2019-02-28T18:08:37.819Z,15.83
2019-02-28T18:11:50.135Z,16.27
2019-02-28T18:14:34.078Z,15.87
2019-02-28T18:17:33.407Z,16.03
2019-02-28T18:20:25.860Z,15.13
2019-02-28T18:23:04.433Z,15.77
2019-02-28T18:26:06.388Z,15.17
2019-02-28T18:28:58.114Z,14.97
2019-02-28T18:31:25.510Z,15.27
2019-02-28T18:34:10.842Z,16.47
2019-02-28T18:36:40.211Z,16.90
2019-02-28T18:39:11.649Z,15.50
2019-02-28T18:41:38.889Z,17.03
2019-02-28T18:44:05.448Z,16.17
2019-02-28T18:46:32.388Z,16.50
2019-02-28T18:48:58.870Z,16.53
2019-02-28T18:51:25.361Z,17.07
2019-02-28T18:53:52.128Z,17.17
2019-02-28T18:56:18.961Z,16.97
2019-02-28T18:58:45.542Z,17.33
2019-02-28T19:01:12.292Z,16.87
2019-02-28T19:03:39.074Z,17.83
2019-02-28T19:06:05.759Z,17.10
2019-02-28T19:08:32.333Z,17.77
2019-02-28T19:10:58.844Z,19.20
2019-02-28T19:13:25.336Z,19.33
2019-02-28T19:15:53.635Z,17.37
2019-02-28T19:18:31.499Z,17.47
2019-02-28T19:20:58.324Z,17.57
2019-02-28T19:23:32.978Z,16.90
2019-02-28T19:25:59.589Z,18.07
2019-02-28T19:28:33.530Z,17.13
2019-02-28T19:31:10.127Z,18.07
2019-02-28T19:33:38.599Z,18.70
2019-02-28T19:36:24.504Z,17.90
2019-02-28T19:38:51.938Z,18.07
2019-02-28T19:41:21.308Z,18.67
2019-02-28T19:43:48.721Z,18.77
2019-02-28T19:46:26.450Z,19.73
2019-02-28T19:48:55.679Z,21.37
2019-02-28T19:51:23.124Z,20.67
2019-02-28T19:53:51.987Z,22.40
2019-02-28T19:56:19.179Z,21.77
2019-02-28T19:58:47.301Z,24.87
2019-02-28T20:01:19.028Z,27.03
2019-02-28T20:03:45.540Z,26.73
2019-02-28T20:06:14.142Z,29.00
2019-02-28T20:08:41.471Z,30.17
2019-02-28T20:11:18.723Z,32.07
2019-02-28T20:13:53.188Z,30.87
2019-02-28T20:16:23.261Z,31.27
2019-02-28T20:18:50.823Z,31.17
2019-02-28T20:21:20.349Z,35.97
2019-02-28T20:24:13.571Z,36.13
2019-02-28T20:26:41.067Z,34.07
2019-02-28T20:29:09.011Z,35.10
2019-02-28T20:31:36.310Z,35.47
2019-02-28T20:34:04.903Z,35.67
2019-02-28T20:36:33.768Z,34.27
2019-02-28T20:39:00.432Z,33.27
2019-02-28T20:41:28.579Z,28.27
2019-02-28T20:43:55.403Z,28.57
2019-02-28T20:46:22.125Z,27.63
2019-02-28T20:48:48.679Z,26.30
2019-02-28T20:51:15.544Z,22.80
2019-02-28T20:53:42.165Z,24.67
2019-02-28T20:56:09.699Z,23.93
2019-02-28T20:58:36.202Z,20.93
2019-02-28T21:01:03.749Z,22.00
2019-02-28T21:03:30.584Z,21.73
2019-02-28T21:05:58.558Z,20.17
2019-02-28T21:08:25.150Z,20.90
2019-02-28T21:10:52.125Z,20.50
2019-02-28T21:13:18.655Z,21.13
2019-02-28T21:15:46.403Z,18.43
2019-02-28T21:18:12.955Z,20.50
2019-02-28T21:20:46.712Z,20.50
2019-02-28T21:23:13.776Z,19.87
2019-02-28T21:25:40.269Z,20.00
2019-02-28T21:28:06.711Z,23.17
2019-02-28T21:30:33.579Z,24.13
2019-02-28T21:33:00.145Z,25.37
2019-02-28T21:35:26.990Z,26.03
2019-02-28T21:37:53.802Z,27.10
2019-02-28T21:40:20.419Z,28.07
2019-02-28T21:42:47.072Z,26.00
2019-02-28T21:45:15.528Z,25.53
2019-02-28T21:47:42.110Z,24.63
2019-02-28T21:50:09.782Z,25.17
2019-02-28T21:52:36.457Z,23.60
2019-02-28T21:55:04.164Z,23.13
2019-02-28T21:57:30.722Z,22.43
2019-02-28T21:59:57.597Z,22.87
2019-02-28T22:02:24.110Z,23.07
2019-02-28T22:04:50.973Z,22.20
2019-02-28T22:07:17.975Z,22.67
2019-02-28T22:09:44.675Z,22.60
2019-02-28T22:12:11.135Z,22.57
2019-02-28T22:14:37.609Z,22.23
2019-02-28T22:17:04.173Z,22.40
2019-02-28T22:19:31.006Z,20.83
2019-02-28T22:21:57.838Z,19.73
2019-02-28T22:24:24.653Z,21.17
2019-02-28T22:26:51.420Z,20.60
2019-02-28T22:29:18.012Z,19.47
2019-02-28T22:32:08.109Z,19.70
2019-02-28T22:34:47.216Z,19.97
2019-02-28T22:37:13.649Z,18.53
2019-02-28T22:39:40.133Z,19.77
2019-02-28T22:42:08.631Z,19.90
2019-02-28T22:44:35.401Z,19.63
2019-02-28T22:47:01.900Z,19.93
2019-02-28T22:49:28.461Z,18.23
2019-02-28T22:51:55.449Z,19.13
2019-02-28T22:54:21.910Z,19.57
2019-02-28T22:56:48.814Z,19.37
2019-02-28T22:59:15.275Z,19.27
2019-02-28T23:01:42.831Z,18.47
2019-02-28T23:04:09.882Z,18.50
2019-02-28T23:06:36.392Z,17.63
2019-02-28T23:09:03.964Z,17.43
2019-02-28T23:11:39.706Z,17.67
2019-02-28T23:14:06.295Z,18.13
2019-02-28T23:16:32.833Z,16.23
2019-02-28T23:18:59.293Z,16.80
2019-02-28T23:21:26.057Z,15.93
2019-02-28T23:23:53.602Z,15.07
2019-02-28T23:26:24.772Z,15.60
2019-02-28T23:28:59.389Z,16.27
2019-02-28T23:31:43.908Z,16.67
2019-02-28T23:34:16.229Z,14.33
2019-02-28T23:36:42.714Z,15.43
2019-02-28T23:39:09.514Z,14.67
2019-02-28T23:41:36.379Z,13.27
2019-02-28T23:44:02.971Z,13.13
2019-02-28T23:46:29.424Z,13.13
2019-02-28T23:48:55.885Z,12.87
2019-02-28T23:51:22.346Z,12.43
2019-02-28T23:53:49.185Z,11.17
2019-02-28T23:56:15.662Z,11.07
2019-02-28T23:58:42.181Z,11.33
